Time;durP1;ratioP1;P1;durP2;ratioP2;P2;SDS_P1;SDS_P2;PMS_P1;PMS_P2;Temp;Humidity;BMP_temperature;BMP_pressure;BME280_temperature;BME280_humidity;BME280_pressure;Samples;Min_cycle;Max_cycle;Signal;HPM_P1;HPM_P2
2022/09/22 00:01:14;;;;;;;12.77;5.97;;;9.80;99.90;;;;;;5094627;28;20050;-51
2022/09/22 00:03:41;;;;;;;8.27;5.90;;;9.80;99.90;;;;;;5094757;28;20051;-51
2022/09/22 00:06:07;;;;;;;9.63;5.75;;;9.80;99.90;;;;;;5094635;28;20044;-50
2022/09/22 00:08:36;;;;;;;12.00;6.68;;;9.70;99.90;;;;;;5094661;28;20032;-50
2022/09/22 00:11:15;;;;;;;9.25;6.15;;;9.70;99.90;;;;;;5094491;28;20035;-52
2022/09/22 00:13:49;;;;;;;11.23;6.32;;;9.70;99.90;;;;;;5094655;28;20036;-50
2022/09/22 00:16:16;;;;;;;10.57;6.18;;;9.70;99.90;;;;;;5093258;28;20047;-50
2022/09/22 00:18:42;;;;;;;10.93;6.15;;;9.70;99.90;;;;;;5093769;28;20411;-53
2022/09/22 00:21:13;;;;;;;10.90;6.50;;;9.70;99.90;;;;;;5094248;28;20455;-49
2022/09/22 00:23:41;;;;;;;11.37;6.17;;;9.60;99.90;;;;;;5094203;28;20044;-50
2022/09/22 00:26:09;;;;;;;12.68;6.45;;;9.60;99.90;;;;;;5094345;28;20117;-54
2022/09/22 00:28:37;;;;;;;10.73;6.82;;;9.60;99.90;;;;;;5094216;28;20040;-53
2022/09/22 00:31:07;;;;;;;9.95;6.25;;;9.60;99.90;;;;;;5094045;28;20311;-53
2022/09/22 00:33:34;;;;;;;14.07;7.85;;;9.50;99.90;;;;;;5094056;28;20044;-54
2022/09/22 00:36:01;;;;;;;11.93;6.28;;;9.50;99.90;;;;;;5093989;28;20416;-53
2022/09/22 00:38:27;;;;;;;9.60;5.90;;;9.50;99.90;;;;;;5082924;28;20052;-49
2022/09/22 00:40:53;;;;;;;12.38;5.88;;;9.50;99.90;;;;;;5094170;28;20115;-50
2022/09/22 00:43:25;;;;;;;11.88;5.60;;;9.40;99.90;;;;;;5093899;28;20044;-52
2022/09/22 00:45:55;;;;;;;10.73;6.18;;;9.40;99.90;;;;;;5093905;28;20088;-50
2022/09/22 00:48:24;;;;;;;9.82;5.95;;;9.40;99.90;;;;;;5093679;28;20088;-50
2022/09/22 00:50:53;;;;;;;11.57;6.75;;;9.40;99.90;;;;;;5093995;28;20055;-50
2022/09/22 00:53:22;;;;;;;10.43;6.28;;;9.40;99.90;;;;;;5093783;28;20044;-50
2022/09/22 00:55:56;;;;;;;9.55;5.32;;;9.30;99.90;;;;;;5093529;28;20062;-51
2022/09/22 00:58:28;;;;;;;10.00;5.45;;;9.30;99.90;;;;;;5093174;28;20044;-49
2022/09/22 01:00:55;;;;;;;11.57;5.95;;;9.30;99.90;;;;;;5093380;28;20403;-54
2022/09/22 01:03:22;;;;;;;9.18;5.63;;;9.40;99.90;;;;;;5093861;28;20089;-50
2022/09/22 01:05:51;;;;;;;9.02;5.45;;;9.30;99.90;;;;;;5093601;28;20058;-50
2022/09/22 01:08:21;;;;;;;8.25;5.53;;;9.30;99.90;;;;;;5093410;28;20385;-50
2022/09/22 01:10:48;;;;;;;8.95;6.30;;;9.20;99.90;;;;;;5093311;28;20407;-54
2022/09/22 01:13:21;;;;;;;9.05;5.47;;;9.30;99.90;;;;;;5093200;28;20054;-53
2022/09/22 01:15:53;;;;;;;9.98;5.55;;;9.30;99.90;;;;;;5093409;28;20040;-53
2022/09/22 01:18:28;;;;;;;10.40;5.70;;;9.40;99.90;;;;;;5093060;28;20476;-50
2022/09/22 01:21:18;;;;;;;10.85;5.93;;;9.40;99.90;;;;;;5093254;28;20043;-51
2022/09/22 01:24:21;;;;;;;8.18;5.35;;;9.40;99.90;;;;;;5075234;28;20043;-52
2022/09/22 01:27:25;;;;;;;8.82;5.07;;;9.40;99.90;;;;;;5092583;28;20488;-54
2022/09/22 01:30:08;;;;;;;8.18;5.07;;;9.30;99.90;;;;;;5010624;28;20116;-54
2022/09/22 01:32:34;;;;;;;8.05;4.90;;;9.20;99.90;;;;;;5010600;28;20038;-57
2022/09/22 01:35:05;;;;;;;8.40;5.10;;;9.30;99.90;;;;;;5058676;28;20051;-51
2022/09/22 01:37:45;;;;;;;7.57;4.47;;;9.20;99.90;;;;;;5092743;28;20062;-51
2022/09/22 01:40:22;;;;;;;7.70;4.57;;;9.20;99.90;;;;;;5075340;28;20071;-50
2022/09/22 01:43:01;;;;;;;7.30;4.45;;;9.20;99.90;;;;;;5092652;28;20040;-51
2022/09/22 01:45:29;;;;;;;7.47;4.78;;;9.20;99.90;;;;;;5074546;28;20044;-49
2022/09/22 01:48:08;;;;;;;7.97;4.47;;;9.10;99.90;;;;;;5092762;28;20065;-51
2022/09/22 01:50:57;;;;;;;8.43;4.32;;;9.10;99.90;;;;;;5092667;28;20040;-49
2022/09/22 01:53:29;;;;;;;7.80;4.50;;;9.10;99.90;;;;;;5074825;28;20055;-50
2022/09/22 01:56:00;;;;;;;8.32;4.80;;;9.10;99.90;;;;;;5092430;28;20052;-49
2022/09/22 01:58:33;;;;;;;8.73;4.63;;;9.00;99.90;;;;;;5092556;28;20122;-50
2022/09/22 02:01:22;;;;;;;7.88;5.18;;;9.00;99.90;;;;;;5092596;28;20066;-53
2022/09/22 02:03:52;;;;;;;6.55;4.30;;;9.10;99.90;;;;;;5091938;28;20397;-51
2022/09/22 02:06:32;;;;;;;8.68;4.40;;;9.10;99.90;;;;;;5092470;28;20052;-50
2022/09/22 02:09:06;;;;;;;7.45;4.68;;;9.10;99.90;;;;;;5092461;28;20396;-50
2022/09/22 02:11:32;;;;;;;7.85;4.53;;;9.00;99.90;;;;;;5092369;28;20036;-50
2022/09/22 02:13:59;;;;;;;6.85;4.75;;;9.10;99.90;;;;;;5092136;28;20048;-52
2022/09/22 02:16:26;;;;;;;8.02;4.65;;;9.00;99.90;;;;;;5092471;28;20365;-52
2022/09/22 02:19:05;;;;;;;6.97;4.47;;;9.00;99.90;;;;;;5091977;28;20059;-50
2022/09/22 02:21:31;;;;;;;8.75;4.70;;;9.00;99.90;;;;;;5092253;28;20047;-52
2022/09/22 02:23:57;;;;;;;9.55;4.80;;;9.00;99.90;;;;;;5074028;28;20040;-51
2022/09/22 02:26:28;;;;;;;9.30;4.53;;;9.00;99.90;;;;;;5092087;28;20067;-51
2022/09/22 02:28:59;;;;;;;9.18;4.47;;;9.00;99.90;;;;;;5092327;28;20063;-51
2022/09/22 02:31:28;;;;;;;8.90;4.20;;;8.90;99.90;;;;;;5092165;28;20096;-53
2022/09/22 02:33:54;;;;;;;9.02;5.10;;;8.90;99.90;;;;;;5092082;28;20096;-50
2022/09/22 02:36:45;;;;;;;6.88;4.00;;;8.90;99.90;;;;;;5074081;28;20070;-51
2022/09/22 02:39:16;;;;;;;8.40;4.03;;;8.90;99.90;;;;;;5093068;28;20094;-51
2022/09/22 02:42:03;;;;;;;8.90;4.55;;;8.90;99.90;;;;;;5096344;28;20048;-51
2022/09/22 02:44:32;;;;;;;7.65;4.63;;;9.00;99.90;;;;;;5096240;28;20044;-54
2022/09/22 02:47:03;;;;;;;9.35;4.55;;;8.90;99.90;;;;;;5096200;28;20085;-49
2022/09/22 02:49:29;;;;;;;8.67;4.47;;;8.90;99.90;;;;;;5096101;28;20123;-50
2022/09/22 02:51:57;;;;;;;9.50;4.40;;;8.90;99.90;;;;;;5095991;28;20093;-54
2022/09/22 02:54:22;;;;;;;8.45;4.50;;;9.00;99.90;;;;;;5095912;28;20051;-55
2022/09/22 02:56:48;;;;;;;7.25;3.67;;;8.90;99.90;;;;;;5095928;28;20040;-51
2022/09/22 02:59:14;;;;;;;7.43;3.92;;;8.80;99.90;;;;;;5095896;28;20821;-52
2022/09/22 03:01:39;;;;;;;10.10;4.18;;;8.80;99.90;;;;;;5077850;28;20043;-53
2022/09/22 03:04:05;;;;;;;8.70;4.32;;;8.80;99.90;;;;;;5095666;28;20048;-51
2022/09/22 03:06:31;;;;;;;7.28;3.80;;;8.80;99.90;;;;;;5095913;28;20064;-51
2022/09/22 03:08:57;;;;;;;8.27;4.00;;;8.70;99.90;;;;;;5060949;28;20071;-53
2022/09/22 03:11:24;;;;;;;8.50;4.18;;;8.70;99.90;;;;;;5095767;28;20044;-52
2022/09/22 03:13:51;;;;;;;9.02;4.25;;;8.70;99.90;;;;;;5095654;28;20097;-53
2022/09/22 03:16:16;;;;;;;7.40;3.95;;;8.60;99.90;;;;;;5095493;28;20119;-53
2022/09/22 03:18:42;;;;;;;9.75;4.50;;;8.60;99.90;;;;;;5095274;28;20134;-55
2022/09/22 03:21:07;;;;;;;8.05;3.92;;;8.70;99.90;;;;;;5095702;28;20036;-53
2022/09/22 03:23:33;;;;;;;11.13;4.82;;;8.60;99.90;;;;;;5095409;28;20483;-52
2022/09/22 03:25:59;;;;;;;7.60;3.88;;;8.60;99.90;;;;;;5095496;28;20036;-53
2022/09/22 03:28:25;;;;;;;8.75;4.10;;;8.60;99.90;;;;;;5077109;28;20386;-50
2022/09/22 03:30:50;;;;;;;10.90;3.95;;;8.60;99.90;;;;;;5077141;28;20048;-51
2022/09/22 03:33:16;;;;;;;8.82;4.30;;;8.60;99.90;;;;;;5095170;28;20028;-52
2022/09/22 03:35:42;;;;;;;8.00;4.30;;;8.60;99.90;;;;;;5095146;28;20498;-51
2022/09/22 03:38:07;;;;;;;7.25;4.43;;;8.60;99.90;;;;;;5095161;28;20044;-50
2022/09/22 03:40:33;;;;;;;9.13;4.28;;;8.60;99.90;;;;;;5095118;28;20043;-51
2022/09/22 03:43:00;;;;;;;9.88;4.15;;;8.60;99.90;;;;;;5095083;28;20036;-52
2022/09/22 03:45:26;;;;;;;8.60;3.95;;;8.50;99.90;;;;;;5094989;28;20164;-53
2022/09/22 03:47:53;;;;;;;9.70;4.15;;;8.50;99.90;;;;;;5094918;28;20404;-52
2022/09/22 03:50:19;;;;;;;10.30;4.20;;;8.50;99.90;;;;;;5094797;28;20155;-51
2022/09/22 03:52:45;;;;;;;7.90;3.75;;;8.50;99.90;;;;;;5095097;28;20407;-54
2022/09/22 03:55:11;;;;;;;7.43;3.80;;;8.50;99.90;;;;;;5094744;28;20056;-50
2022/09/22 03:57:39;;;;;;;7.82;3.47;;;8.50;99.90;;;;;;5095157;28;20085;-52
2022/09/22 04:00:06;;;;;;;8.85;4.35;;;8.50;99.90;;;;;;5094695;28;20036;-52
2022/09/22 04:02:31;;;;;;;7.25;4.15;;;8.40;99.90;;;;;;5095008;28;20539;-50
2022/09/22 04:04:57;;;;;;;8.60;3.67;;;8.40;99.90;;;;;;5094783;28;20123;-49
2022/09/22 04:07:23;;;;;;;8.43;4.05;;;8.30;99.90;;;;;;5094680;28;20043;-53
2022/09/22 04:09:48;;;;;;;8.32;3.80;;;8.30;99.90;;;;;;5094688;28;20050;-52
2022/09/22 04:12:14;;;;;;;6.95;3.70;;;8.30;99.90;;;;;;5094554;28;20454;-51
2022/09/22 04:14:40;;;;;;;7.07;3.53;;;8.30;99.90;;;;;;5076598;28;20530;-54
2022/09/22 04:17:06;;;;;;;7.65;3.70;;;8.30;99.90;;;;;;5076251;28;20089;-51
2022/09/22 04:19:34;;;;;;;8.38;3.47;;;8.30;99.90;;;;;;5094218;28;20040;-51
2022/09/22 04:22:01;;;;;;;7.25;3.90;;;8.30;99.90;;;;;;5094441;28;20123;-50
2022/09/22 04:24:27;;;;;;;7.32;3.35;;;8.30;99.90;;;;;;5094302;28;20344;-51
2022/09/22 04:26:52;;;;;;;7.10;3.25;;;8.30;99.90;;;;;;5094287;28;20062;-50
2022/09/22 04:29:18;;;;;;;8.65;3.60;;;8.40;99.90;;;;;;5094134;28;20123;-55
2022/09/22 04:31:43;;;;;;;8.55;3.60;;;8.30;99.90;;;;;;5094323;28;20074;-57
2022/09/22 04:34:09;;;;;;;7.22;3.75;;;8.30;99.90;;;;;;5094103;28;20051;-56
2022/09/22 04:36:35;;;;;;;6.25;3.47;;;8.30;99.90;;;;;;5094141;28;20400;-52
2022/09/22 04:39:02;;;;;;;5.85;3.20;;;8.20;99.90;;;;;;5093881;28;20051;-50
2022/09/22 04:41:29;;;;;;;7.55;3.80;;;8.20;99.90;;;;;;5087429;28;20043;-50
2022/09/22 04:43:55;;;;;;;8.13;3.35;;;8.20;99.90;;;;;;5093557;28;20415;-49
2022/09/22 04:46:21;;;;;;;7.78;3.75;;;8.20;99.90;;;;;;5093894;28;20066;-50
2022/09/22 04:48:46;;;;;;;8.52;3.50;;;8.20;99.90;;;;;;5093526;28;20094;-49
2022/09/22 04:51:12;;;;;;;7.80;3.75;;;8.20;99.90;;;;;;5093906;28;20541;-50
2022/09/22 04:53:38;;;;;;;7.35;3.70;;;8.20;99.90;;;;;;5093815;28;20036;-50
2022/09/22 04:56:04;;;;;;;8.25;3.72;;;8.20;99.90;;;;;;5093369;28;20091;-50
2022/09/22 04:58:30;;;;;;;6.93;3.20;;;8.20;99.90;;;;;;5093413;28;20487;-51
2022/09/22 05:01:04;;;;;;;7.72;3.70;;;8.10;99.90;;;;;;5093323;28;20036;-51
2022/09/22 05:03:30;;;;;;;7.90;3.40;;;8.10;99.90;;;;;;5093103;28;20043;-54
2022/09/22 05:05:55;;;;;;;7.00;3.65;;;8.20;99.90;;;;;;5093679;28;20040;-53
2022/09/22 05:08:21;;;;;;;7.85;3.50;;;8.20;99.90;;;;;;5093306;28;20365;-53
2022/09/22 05:10:47;;;;;;;9.35;3.38;;;8.10;99.90;;;;;;5075397;28;20044;-51
2022/09/22 05:13:12;;;;;;;8.82;3.47;;;8.10;99.90;;;;;;5093256;28;20074;-51
2022/09/22 05:15:39;;;;;;;7.85;3.67;;;8.10;99.90;;;;;;5093483;28;20086;-51
2022/09/22 05:18:05;;;;;;;7.75;3.35;;;8.10;99.90;;;;;;5093149;28;20044;-51
2022/09/22 05:20:31;;;;;;;8.07;3.47;;;8.10;99.90;;;;;;5093107;28;20036;-52
2022/09/22 05:22:57;;;;;;;6.95;3.60;;;8.10;99.90;;;;;;5093042;28;20119;-50
2022/09/22 05:25:23;;;;;;;9.10;3.50;;;8.10;99.90;;;;;;5058388;28;20040;-53
2022/09/22 05:27:54;;;;;;;6.32;3.13;;;8.10;99.90;;;;;;5093034;28;20101;-51
2022/09/22 05:30:22;;;;;;;7.60;3.63;;;8.00;99.90;;;;;;5092990;28;20121;-52
2022/09/22 05:32:49;;;;;;;12.25;3.83;;;8.10;99.90;;;;;;5092980;28;20403;-51
2022/09/22 05:35:18;;;;;;;6.47;3.42;;;8.10;99.90;;;;;;5074808;28;20105;-50
2022/09/22 05:37:48;;;;;;;7.95;3.85;;;8.00;99.90;;;;;;5092630;28;20051;-53
2022/09/22 05:40:15;;;;;;;11.35;4.07;;;8.10;99.90;;;;;;5092500;28;20032;-54
2022/09/22 05:42:50;;;;;;;8.27;3.58;;;8.10;99.90;;;;;;5093050;28;20396;-52
2022/09/22 05:45:17;;;;;;;9.27;3.70;;;8.20;99.90;;;;;;5074670;28;20051;-53
2022/09/22 05:47:43;;;;;;;7.20;4.18;;;8.10;99.90;;;;;;5092758;28;20043;-51
2022/09/22 05:50:11;;;;;;;14.50;4.60;;;8.20;99.90;;;;;;5092535;28;20168;-52
2022/09/22 05:52:37;;;;;;;11.18;4.13;;;8.20;99.90;;;;;;5092563;28;20044;-50
2022/09/22 05:55:04;;;;;;;8.15;4.20;;;8.20;99.90;;;;;;5092687;28;20381;-50
2022/09/22 05:57:30;;;;;;;10.35;3.90;;;8.20;99.90;;;;;;5092753;28;20498;-51
2022/09/22 05:59:56;;;;;;;10.38;4.30;;;8.20;99.90;;;;;;5092527;28;20381;-50
2022/09/22 06:02:23;;;;;;;8.00;4.18;;;8.30;99.90;;;;;;5092519;28;20044;-49
2022/09/22 06:04:49;;;;;;;10.95;3.97;;;8.30;99.90;;;;;;5074312;28;20043;-50
2022/09/22 06:07:15;;;;;;;8.63;4.53;;;8.30;99.90;;;;;;5092120;28;20032;-50
2022/09/22 06:09:41;;;;;;;8.65;4.00;;;8.40;99.90;;;;;;5074140;28;20105;-52
2022/09/22 06:12:07;;;;;;;8.73;4.30;;;8.50;99.90;;;;;;5091577;28;20032;-53
2022/09/22 06:14:34;;;;;;;12.25;6.10;;;8.50;99.90;;;;;;5090562;28;20032;-51
2022/09/22 06:17:00;;;;;;;10.80;5.10;;;8.60;99.90;;;;;;5090561;28;20032;-53
2022/09/22 06:19:27;;;;;;;9.50;4.25;;;8.50;99.90;;;;;;5072381;28;20561;-53
2022/09/22 06:21:53;;;;;;;9.68;4.57;;;8.60;99.90;;;;;;5090526;28;20051;-54
2022/09/22 06:24:19;;;;;;;9.00;5.03;;;8.70;99.90;;;;;;5090680;28;20040;-53
2022/09/22 06:26:45;;;;;;;10.88;4.90;;;8.70;99.90;;;;;;5090547;28;20067;-53
2022/09/22 06:29:10;;;;;;;12.18;4.90;;;8.80;99.90;;;;;;5087847;28;20040;-54
2022/09/22 06:31:37;;;;;;;11.35;5.07;;;8.70;99.90;;;;;;5072456;28;20422;-55
2022/09/22 06:34:02;;;;;;;10.18;5.43;;;8.80;99.90;;;;;;5090428;28;20105;-52
2022/09/22 06:36:31;;;;;;;10.07;5.45;;;9.00;99.90;;;;;;5090367;28;20036;-54
2022/09/22 06:39:00;;;;;;;11.20;5.57;;;9.00;99.90;;;;;;5101767;28;20120;-52
2022/09/22 06:41:32;;;;;;;8.55;4.82;;;9.00;99.90;;;;;;5096066;28;20036;-50
2022/09/22 06:43:58;;;;;;;11.52;5.15;;;9.10;99.90;;;;;;5072171;28;20122;-50
2022/09/22 06:46:25;;;;;;;10.70;4.85;;;9.20;99.90;;;;;;5090220;28;20128;-51
2022/09/22 06:48:57;;;;;;;9.50;5.13;;;9.20;99.90;;;;;;5090609;28;20047;-53
2022/09/22 06:51:29;;;;;;;11.65;5.10;;;9.30;99.90;;;;;;5090414;28;20044;-51
2022/09/22 06:53:55;;;;;;;8.15;5.20;;;9.30;99.90;;;;;;5090381;28;20097;-51
2022/09/22 06:56:22;;;;;;;12.32;5.32;;;9.50;99.90;;;;;;5089969;28;20115;-51
2022/09/22 06:58:48;;;;;;;13.60;5.47;;;9.50;99.90;;;;;;5090199;28;20083;-50
2022/09/22 07:01:15;;;;;;;11.55;5.80;;;9.40;99.90;;;;;;5090772;28;20441;-53
2022/09/22 07:03:42;;;;;;;10.43;5.55;;;9.50;99.90;;;;;;5072259;28;20032;-51
2022/09/22 07:06:08;;;;;;;11.32;5.53;;;9.60;99.90;;;;;;5097203;28;20425;-50
2022/09/22 07:08:37;;;;;;;9.25;6.13;;;9.70;99.90;;;;;;5110601;28;20411;-49
2022/09/22 07:11:07;;;;;;;12.00;5.97;;;9.80;99.90;;;;;;5110445;28;20119;-53
2022/09/22 07:13:36;;;;;;;12.90;5.40;;;9.80;99.90;;;;;;5110484;28;20039;-49
2022/09/22 07:16:10;;;;;;;12.85;6.53;;;9.90;99.90;;;;;;5110189;28;20027;-51
2022/09/22 07:18:44;;;;;;;9.25;5.85;;;10.00;99.90;;;;;;5110170;28;20040;-50
2022/09/22 07:21:23;;;;;;;11.77;5.70;;;10.10;99.90;;;;;;5110543;28;20040;-51
2022/09/22 07:23:52;;;;;;;12.13;5.82;;;10.20;99.90;;;;;;5099939;28;20490;-54
2022/09/22 07:26:20;;;;;;;10.95;6.13;;;10.20;99.90;;;;;;5092851;28;20040;-52
2022/09/22 07:28:50;;;;;;;10.32;5.90;;;10.30;99.90;;;;;;5094020;28;20032;-54
2022/09/22 07:31:16;;;;;;;12.20;6.75;;;10.40;99.90;;;;;;5093728;28;20058;-52
2022/09/22 07:33:43;;;;;;;9.93;6.10;;;10.60;99.90;;;;;;5093643;28;20123;-51
2022/09/22 07:36:24;;;;;;;11.07;5.63;;;10.60;99.90;;;;;;5093698;28;20047;-55
2022/09/22 07:38:52;;;;;;;11.32;5.78;;;10.70;99.90;;;;;;5093392;28;20403;-54
2022/09/22 07:41:21;;;;;;;12.50;5.57;;;10.80;99.90;;;;;;5093754;28;20040;-51
2022/09/22 07:43:54;;;;;;;13.77;6.60;;;10.90;99.90;;;;;;5093746;28;20046;-55
2022/09/22 07:46:20;;;;;;;8.38;5.40;;;11.00;99.90;;;;;;5093339;28;20170;-51
2022/09/22 07:48:46;;;;;;;9.63;5.65;;;11.00;99.90;;;;;;5105902;28;20075;-54
2022/09/22 07:51:18;;;;;;;12.95;6.07;;;11.10;99.90;;;;;;5113612;28;20144;-54
2022/09/22 07:53:49;;;;;;;11.93;6.50;;;11.30;99.90;;;;;;5110341;28;20043;-50
2022/09/22 07:56:19;;;;;;;11.85;5.60;;;11.30;99.90;;;;;;5081380;28;20062;-55
2022/09/22 07:58:51;;;;;;;13.30;5.53;;;11.40;99.90;;;;;;5081774;28;20443;-54
2022/09/22 08:01:22;;;;;;;15.67;5.77;;;11.40;99.90;;;;;;5082715;28;20043;-51
2022/09/22 08:03:49;;;;;;;13.60;5.68;;;11.50;99.90;;;;;;5090095;28;20039;-53
2022/09/22 08:06:16;;;;;;;10.20;5.40;;;11.50;99.90;;;;;;5083122;28;20062;-53
2022/09/22 08:08:45;;;;;;;10.80;5.15;;;11.70;99.90;;;;;;5081863;28;20059;-53
2022/09/22 08:11:31;;;;;;;11.02;5.40;;;11.70;99.90;;;;;;5082206;28;20032;-53
2022/09/22 08:13:59;;;;;;;11.48;4.82;;;11.90;99.90;;;;;;5072861;28;20052;-52
2022/09/22 08:16:29;;;;;;;8.05;4.38;;;11.90;99.90;;;;;;5072501;28;20477;-53
2022/09/22 08:18:57;;;;;;;7.90;4.53;;;12.00;99.90;;;;;;5072627;28;20566;-52
2022/09/22 08:21:29;;;;;;;11.43;5.75;;;12.10;99.90;;;;;;5077471;28;20040;-52
2022/09/22 08:23:55;;;;;;;9.45;4.97;;;12.20;99.90;;;;;;5072462;28;20389;-52
2022/09/22 08:26:21;;;;;;;8.95;5.07;;;12.20;99.90;;;;;;5071137;28;20039;-51
2022/09/22 08:28:51;;;;;;;11.63;4.93;;;12.30;99.90;;;;;;5072361;28;20040;-51
2022/09/22 08:31:20;;;;;;;7.43;4.15;;;12.40;99.90;;;;;;5071240;28;20044;-50
2022/09/22 08:33:48;;;;;;;7.20;4.10;;;12.40;99.90;;;;;;5072493;28;20054;-55
2022/09/22 08:36:14;;;;;;;8.85;4.35;;;12.60;99.90;;;;;;5071304;28;20037;-50
2022/09/22 08:38:41;;;;;;;7.30;3.60;;;12.60;99.90;;;;;;5071676;28;20531;-54
2022/09/22 08:41:23;;;;;;;10.23;3.78;;;12.80;99.90;;;;;;5072099;28;20405;-51
2022/09/22 08:43:54;;;;;;;7.40;4.20;;;12.80;99.90;;;;;;5070318;28;20507;-52
2022/09/22 08:46:27;;;;;;;10.27;3.88;;;12.90;99.90;;;;;;5072439;28;20043;-56
2022/09/22 08:51:54;;;;;;;9.30;3.33;;;13.10;99.90;;;;;;5072080;28;20400;-55
2022/09/22 08:54:30;;;;;;;9.07;3.42;;;13.10;99.90;;;;;;5072198;28;20040;-51
2022/09/22 08:57:26;;;;;;;7.82;3.47;;;13.30;99.90;;;;;;5071906;28;20045;-53
2022/09/22 08:59:56;;;;;;;8.80;3.45;;;13.40;99.90;;;;;;5071673;28;20044;-52
2022/09/22 09:02:40;;;;;;;6.55;3.30;;;13.40;99.90;;;;;;5071747;28;20392;-51
2022/09/22 09:05:13;;;;;;;8.75;2.72;;;13.40;99.90;;;;;;5071528;28;20053;-51
2022/09/22 09:07:45;;;;;;;6.25;3.10;;;13.50;99.90;;;;;;5071765;28;20488;-50
2022/09/22 09:10:48;;;;;;;8.50;4.25;;;13.50;99.90;;;;;;5071902;28;20392;-51
2022/09/22 09:13:29;;;;;;;8.88;2.97;;;13.60;99.90;;;;;;5072784;28;20051;-55
2022/09/22 09:16:32;;;;;;;7.97;3.33;;;13.70;99.90;;;;;;5072546;28;20045;-50
2022/09/22 09:19:15;;;;;;;8.63;3.03;;;13.80;99.90;;;;;;5073056;28;20111;-50
2022/09/22 09:21:51;;;;;;;9.10;3.17;;;13.90;99.90;;;;;;5072968;28;20037;-49
2022/09/22 09:24:33;;;;;;;8.50;2.53;;;14.00;99.90;;;;;;5072756;28;20105;-53
2022/09/22 09:27:22;;;;;;;7.90;2.33;;;14.00;99.90;;;;;;5089728;28;20511;-49
2022/09/22 09:30:11;;;;;;;6.10;2.25;;;14.10;99.90;;;;;;5093203;28;20044;-50
2022/09/22 09:32:54;;;;;;;6.78;2.53;;;14.20;99.90;;;;;;5092859;28;20086;-48
2022/09/22 09:35:25;;;;;;;7.32;2.30;;;14.30;99.90;;;;;;5092856;28;20089;-50
2022/09/22 09:37:56;;;;;;;6.43;2.67;;;14.40;99.90;;;;;;5069569;28;20102;-54
2022/09/22 09:40:22;;;;;;;6.30;2.00;;;14.40;99.90;;;;;;5077933;28;20480;-52
2022/09/22 09:43:02;;;;;;;8.73;2.15;;;14.60;99.90;;;;;;5084028;28;20036;-59
2022/09/22 09:45:50;;;;;;;9.07;2.70;;;14.70;99.90;;;;;;5074333;28;20039;-57
2022/09/22 09:48:30;;;;;;;8.52;2.35;;;14.60;99.90;;;;;;5076057;28;20036;-57
2022/09/22 09:51:04;;;;;;;6.60;2.00;;;14.60;99.90;;;;;;5076135;28;20071;-57
2022/09/22 09:53:36;;;;;;;6.75;1.83;;;14.70;99.90;;;;;;5058831;28;20557;-57
2022/09/22 09:56:07;;;;;;;5.68;1.70;;;14.80;99.90;;;;;;5086981;28;20407;-58
2022/09/22 10:01:17;;;;;;;5.53;1.35;;;14.80;99.90;;;;;;5097212;28;20051;-57
2022/09/22 10:03:46;;;;;;;5.68;1.40;;;14.90;99.90;;;;;;5095707;28;20036;-56
2022/09/22 10:06:12;;;;;;;5.93;1.50;;;14.90;99.90;;;;;;5096807;28;20517;-58
2022/09/22 10:08:44;;;;;;;4.97;1.70;;;15.00;99.90;;;;;;5094108;28;20043;-57
2022/09/22 10:11:12;;;;;;;5.25;1.55;;;15.00;99.90;;;;;;5093989;28;20039;-53
2022/09/22 10:13:39;;;;;;;5.50;1.77;;;15.10;99.90;;;;;;5095603;28;20063;-54
2022/09/22 10:16:24;;;;;;;5.05;1.70;;;15.30;99.90;;;;;;5095547;28;20105;-54
2022/09/22 10:19:18;;;;;;;6.85;2.10;;;15.40;99.90;;;;;;5096080;28;20050;-47
2022/09/22 10:21:44;;;;;;;10.05;2.22;;;15.40;99.90;;;;;;5094617;28;20067;-46
2022/09/22 10:24:56;;;;;;;7.90;1.70;;;15.40;99.90;;;;;;5093712;28;20066;-50
2022/09/22 10:27:24;;;;;;;7.90;1.70;;;15.50;99.90;;;;;;5053093;28;20040;-47
2022/09/22 10:30:09;;;;;;;7.22;1.98;;;15.50;99.90;;;;;;5090544;28;20035;-47
2022/09/22 10:32:36;;;;;;;6.88;1.88;;;15.40;99.90;;;;;;5073680;28;20048;-50
2022/09/22 10:35:29;;;;;;;5.15;1.80;;;15.60;99.90;;;;;;5094380;28;20032;-46
2022/09/22 10:38:11;;;;;;;5.72;1.92;;;15.70;99.90;;;;;;5092456;28;20040;-47
2022/09/22 10:40:40;;;;;;;8.05;1.67;;;15.70;99.90;;;;;;5094881;28;20089;-53
2022/09/22 10:43:19;;;;;;;9.40;3.08;;;15.80;99.90;;;;;;5092367;28;20480;-50
2022/09/22 10:46:27;;;;;;;6.63;1.77;;;15.90;99.90;;;;;;5095974;28;20109;-49
2022/09/22 10:49:12;;;;;;;7.32;1.95;;;16.00;99.90;;;;;;5093511;28;20040;-47
2022/09/22 10:51:53;;;;;;;11.90;2.40;;;16.10;99.90;;;;;;5092229;28;20043;-47
2022/09/22 10:54:25;;;;;;;8.00;2.85;;;16.10;99.90;;;;;;5095781;28;20065;-50
2022/09/22 10:56:58;;;;;;;6.68;2.45;;;16.10;99.90;;;;;;5093108;28;20052;-47
2022/09/22 10:59:52;;;;;;;7.65;2.65;;;16.20;99.90;;;;;;5092448;28;20044;-47
2022/09/22 11:02:21;;;;;;;10.60;2.83;;;16.20;99.90;;;;;;5096417;28;20086;-47
2022/09/22 11:05:04;;;;;;;8.68;2.53;;;16.00;99.90;;;;;;5097945;28;20032;-49
2022/09/22 11:13:56;;;;;;;6.20;2.33;;;16.50;99.90;;;;;;5098458;28;20078;-47
2022/09/22 11:16:54;;;;;;;7.15;2.55;;;16.60;99.90;;;;;;5098203;28;20067;-47
2022/09/22 11:19:31;;;;;;;6.05;2.50;;;16.50;99.90;;;;;;5078101;28;20134;-50
2022/09/22 11:22:02;;;;;;;7.07;2.70;;;16.50;99.90;;;;;;5079639;28;20044;-48
2022/09/22 11:24:47;;;;;;;6.97;2.88;;;16.50;99.90;;;;;;5096851;28;20394;-51
2022/09/22 11:27:36;;;;;;;7.00;2.70;;;16.50;99.90;;;;;;5097069;28;20144;-49
2022/09/22 11:30:21;;;;;;;6.07;2.45;;;16.60;99.90;;;;;;5100517;28;20036;-50
2022/09/22 11:33:02;;;;;;;9.32;2.90;;;16.70;99.90;;;;;;5098536;28;20261;-49
2022/09/22 11:35:51;;;;;;;9.75;2.72;;;16.70;99.90;;;;;;5078664;28;20052;-47
2022/09/22 11:38:47;;;;;;;8.20;2.72;;;16.80;99.90;;;;;;5097115;28;20121;-48
2022/09/22 11:41:16;;;;;;;9.75;3.85;;;17.00;99.90;;;;;;5094456;28;20051;-47
2022/09/22 11:44:19;;;;;;;8.50;2.60;;;17.10;99.90;;;;;;5096702;28;20046;-48
2022/09/22 11:47:09;;;;;;;8.30;3.13;;;17.10;99.90;;;;;;5094042;28;20503;-50
2022/09/22 11:49:43;;;;;;;7.93;3.20;;;17.10;99.90;;;;;;5094254;28;20039;-47
2022/09/22 11:52:24;;;;;;;7.60;3.22;;;17.30;99.90;;;;;;5094096;28;20036;-48
2022/09/22 11:55:17;;;;;;;7.38;2.90;;;17.10;99.90;;;;;;5093831;28;20055;-46
2022/09/22 11:57:47;;;;;;;7.60;2.80;;;17.00;99.90;;;;;;5075513;28;20052;-48
2022/09/22 12:00:18;;;;;;;6.85;2.75;;;17.10;99.90;;;;;;5093771;28;20040;-47
2022/09/22 12:03:01;;;;;;;7.18;3.22;;;16.90;99.90;;;;;;5075451;28;20043;-47
2022/09/22 12:05:53;;;;;;;7.25;2.97;;;16.70;99.90;;;;;;5094651;28;20089;-52
2022/09/22 12:08:24;;;;;;;7.63;3.72;;;16.90;99.90;;;;;;5094528;28;20047;-50
2022/09/22 12:10:51;;;;;;;8.23;3.67;;;17.10;99.90;;;;;;5076159;28;20123;-47
2022/09/22 12:13:29;;;;;;;9.23;5.10;;;17.30;99.90;;;;;;5094458;28;20199;-47
2022/09/22 12:16:21;;;;;;;9.25;4.25;;;17.40;99.90;;;;;;5094243;28;20043;-47
2022/09/22 12:18:56;;;;;;;8.90;4.63;;;17.60;99.90;;;;;;5094505;28;20169;-47
2022/09/22 12:21:36;;;;;;;8.10;5.13;;;17.60;99.90;;;;;;5076294;28;20126;-48
2022/09/22 12:24:06;;;;;;;9.30;4.90;;;17.60;99.90;;;;;;5094042;28;20061;-47
2022/09/22 12:26:35;;;;;;;8.80;5.13;;;17.50;99.90;;;;;;5094231;28;20039;-47
2022/09/22 12:29:16;;;;;;;11.15;6.47;;;17.20;99.90;;;;;;5076207;28;20044;-48
2022/09/22 12:31:44;;;;;;;9.48;5.22;;;17.00;99.90;;;;;;5097203;28;20085;-47
2022/09/22 12:34:21;;;;;;;10.30;5.20;;;17.20;99.90;;;;;;5085738;28;20050;-47
2022/09/22 12:36:50;;;;;;;10.88;5.22;;;17.30;99.90;;;;;;5103239;28;20100;-47
2022/09/22 12:39:29;;;;;;;10.43;4.63;;;17.40;99.90;;;;;;5085015;28;20032;-52
2022/09/22 12:42:00;;;;;;;9.88;4.80;;;17.50;99.90;;;;;;5102094;28;20114;-48
2022/09/22 12:44:48;;;;;;;8.15;4.15;;;17.60;99.90;;;;;;5103111;28;20031;-46
2022/09/22 12:47:21;;;;;;;8.90;4.05;;;17.60;99.90;;;;;;5103988;28;20063;-47
2022/09/22 12:49:55;;;;;;;8.05;4.30;;;17.70;99.90;;;;;;5096651;28;20051;-49
2022/09/22 12:52:39;;;;;;;7.53;4.13;;;17.70;99.90;;;;;;5075737;28;20177;-49
2022/09/22 12:55:21;;;;;;;8.85;4.50;;;17.70;99.90;;;;;;5093739;28;20131;-47
2022/09/22 12:57:49;;;;;;;8.65;4.32;;;17.70;99.90;;;;;;5075505;28;20051;-52
2022/09/22 13:00:35;;;;;;;10.27;5.15;;;17.60;99.90;;;;;;5093602;28;20480;-50
2022/09/22 13:03:26;;;;;;;12.15;4.35;;;17.30;99.90;;;;;;5093658;28;20036;-51
2022/09/22 13:05:54;;;;;;;9.02;4.70;;;17.20;99.90;;;;;;5093365;28;20123;-51
2022/09/22 13:08:32;;;;;;;10.02;5.18;;;17.30;99.90;;;;;;5093600;28;20105;-49
2022/09/22 13:11:06;;;;;;;9.38;4.75;;;17.30;99.90;;;;;;5093383;28;20040;-49
2022/09/22 13:13:39;;;;;;;7.80;4.45;;;17.30;99.90;;;;;;5093194;28;20101;-49
2022/09/22 13:16:24;;;;;;;8.73;4.15;;;17.30;99.90;;;;;;5093068;28;20054;-51
2022/09/22 13:18:53;;;;;;;10.85;4.82;;;17.30;99.90;;;;;;5093042;28;20036;-51
2022/09/22 13:21:21;;;;;;;8.13;3.90;;;17.30;99.90;;;;;;5093216;28;20082;-50
2022/09/22 13:23:50;;;;;;;10.20;4.47;;;17.30;99.90;;;;;;5092593;28;20040;-47
2022/09/22 13:26:19;;;;;;;10.65;4.35;;;17.20;99.90;;;;;;5093186;28;20396;-49
2022/09/22 13:29:17;;;;;;;10.48;4.22;;;17.20;99.90;;;;;;5093055;28;20044;-49